Time,TemperatureF,DewpointF,PressureIn,WindDirection,WindDirectionDegrees,WindSpeedMPH,WindSpeedGustMPH,Humidity,HourlyPrecipIn,Conditions,Clouds,dailyrainin,SoftwareType,DateUTC
2013-06-28 01:11:00,54.0,47.0,-100.00,East,95,0.0,1.0,77,-99.99,,,0.00,,2013-06-28 07:11:00,
2013-06-28 01:22:00,54.0,47.0,-100.00,East,95,0.0,1.0,77,-99.99,,,0.00,,2013-06-28 07:22:00,
2013-06-28 01:43:00,50.0,45.0,-100.00,ENE,65,1.0,2.0,82,-99.99,,,0.00,,2013-06-28 07:43:00,
2013-06-28 01:52:00,50.0,45.0,-100.00,ENE,65,1.0,2.0,82,-99.99,,,0.00,,2013-06-28 07:52:00,
2013-06-28 02:01:00,50.0,45.0,-100.00,ENE,65,1.0,2.0,82,-99.99,,,0.00,,2013-06-28 08:01:00,
2013-06-28 02:11:00,50.0,45.0,-100.00,North,10,2.0,3.0,85,-99.99,,,0.00,,2013-06-28 08:11:00,
2013-06-28 02:21:00,50.0,45.0,-100.00,North,10,2.0,3.0,85,-99.99,,,0.00,,2013-06-28 08:21:00,
2013-06-28 02:33:00,51.0,45.0,-100.00,NE,40,2.0,4.0,81,-99.99,,,0.00,,2013-06-28 08:33:00,
2013-06-28 02:43:00,51.0,45.0,-100.00,NE,40,2.0,4.0,81,-99.99,,,0.00,,2013-06-28 08:43:00,
2013-06-28 02:52:00,51.0,45.0,-100.00,NE,40,2.0,4.0,81,-99.99,,,0.00,,2013-06-28 08:52:00,
2013-06-28 03:02:00,51.0,45.0,-100.00,NE,40,2.0,4.0,81,-99.99,,,0.00,,2013-06-28 09:02:00,
2013-06-28 03:11:00,50.0,45.0,-100.00,NNE,25,4.0,4.0,82,-99.99,,,0.00,,2013-06-28 09:11:00,
2013-06-28 03:22:00,50.0,45.0,-100.00,NNE,25,4.0,4.0,82,-99.99,,,0.00,,2013-06-28 09:22:00,
2013-06-28 04:01:00,49.0,45.0,-100.00,North,10,1.0,3.0,86,-99.99,,,0.00,,2013-06-28 10:01:00,
2013-06-28 04:11:00,50.0,45.0,-100.00,ENE,60,0.0,3.0,84,-99.99,,,0.00,,2013-06-28 10:11:00,
2013-06-28 04:22:00,50.0,45.0,-100.00,ENE,60,0.0,3.0,84,-99.99,,,0.00,,2013-06-28 10:22:00,
2013-06-28 04:33:00,49.0,45.0,-100.00,North,10,1.0,3.0,86,-99.99,,,0.00,,2013-06-28 10:33:00,
2013-06-28 04:42:00,49.0,45.0,-100.00,North,10,1.0,3.0,86,-99.99,,,0.00,,2013-06-28 10:42:00,
2013-06-28 04:52:00,49.0,45.0,-100.00,North,10,1.0,3.0,86,-99.99,,,0.00,,2013-06-28 10:52:00,
2013-06-28 05:01:00,47.0,44.0,-100.00,SSE,150,1.0,2.0,89,-99.99,,,0.00,,2013-06-28 11:01:00,
2013-06-28 05:11:00,49.0,45.0,-100.00,South,190,1.0,3.0,86,-99.99,,,0.00,,2013-06-28 11:11:00,
2013-06-28 05:22:00,49.0,45.0,-100.00,South,190,1.0,3.0,86,-99.99,,,0.00,,2013-06-28 11:22:00,
2013-06-28 05:34:00,47.0,44.0,-100.00,SSE,150,1.0,2.0,89,-99.99,,,0.00,,2013-06-28 11:34:00,
2013-06-28 05:43:00,47.0,44.0,-100.00,SSE,150,1.0,2.0,89,-99.99,,,0.00,,2013-06-28 11:43:00,
2013-06-28 05:53:00,47.0,44.0,-100.00,SSE,150,1.0,2.0,89,-99.99,,,0.00,,2013-06-28 11:53:00,
2013-06-28 06:12:00,46.0,43.0,-100.00,ESE,105,1.0,3.0,89,-99.99,,,0.00,,2013-06-28 12:12:00,
2013-06-28 06:22:00,46.0,43.0,-100.00,ESE,105,1.0,3.0,89,-99.99,,,0.00,,2013-06-28 12:22:00,
2013-06-28 06:33:00,47.0,44.0,-100.00,ENE,65,1.0,4.0,90,-99.99,,,0.00,,2013-06-28 12:33:00,
2013-06-28 06:43:00,47.0,44.0,-100.00,ENE,65,1.0,4.0,90,-99.99,,,0.00,,2013-06-28 12:43:00,
2013-06-28 06:52:00,47.0,44.0,-100.00,NE,40,1.0,2.0,88,-99.99,,,0.00,,2013-06-28 12:52:00,
2013-06-28 07:01:00,47.0,44.0,-100.00,NE,40,1.0,2.0,88,-99.99,,,0.00,,2013-06-28 13:01:00,
2013-06-28 07:23:00,47.0,43.0,-100.00,NNE,15,1.0,2.0,84,-99.99,,,0.00,,2013-06-28 13:23:00,
2013-06-28 07:33:00,47.0,43.0,-100.00,NNE,15,1.0,2.0,84,-99.99,,,0.00,,2013-06-28 13:33:00,
2013-06-28 07:43:00,52.0,46.0,-100.00,NE,45,2.0,3.0,79,-99.99,,,-99.99,,2013-06-28 13:43:00,
2013-06-28 08:01:00,51.0,45.0,-100.00,NE,35,3.0,4.0,80,-99.99,,,0.00,,2013-06-28 14:01:00,
2013-06-28 08:11:00,54.0,46.0,-100.00,NNW,345,0.0,1.0,74,-99.99,,,0.00,,2013-06-28 14:11:00,
2013-06-28 08:22:00,54.0,46.0,-100.00,NNW,345,0.0,1.0,74,-99.99,,,0.00,,2013-06-28 14:22:00,
2013-06-28 08:33:00,54.0,46.0,-100.00,SSW,210,2.0,3.0,75,-99.99,,,0.00,,2013-06-28 14:33:00,
2013-06-28 08:44:00,54.0,46.0,-100.00,SSW,210,2.0,3.0,75,-99.99,,,0.00,,2013-06-28 14:44:00,
2013-06-28 08:53:00,56.0,48.0,-100.00,SSW,205,1.0,2.0,73,-99.99,,,0.00,,2013-06-28 14:53:00,
2013-06-28 09:01:00,59.0,48.0,-100.00,South,190,2.0,3.0,69,-99.99,,,0.00,,2013-06-28 15:01:00,
2013-06-28 09:02:00,56.0,48.0,-100.00,SSW,205,1.0,2.0,73,-99.99,,,0.00,,2013-06-28 15:02:00,
2013-06-28 09:11:00,56.0,48.0,-100.00,SSW,205,1.0,2.0,73,-99.99,,,0.00,,2013-06-28 15:11:00,
2013-06-28 09:24:00,56.0,48.0,-100.00,SSW,205,1.0,2.0,73,-99.99,,,0.00,,2013-06-28 15:24:00,
2013-06-28 09:34:00,59.0,48.0,-100.00,South,190,2.0,3.0,69,-99.99,,,0.00,,2013-06-28 15:34:00,
2013-06-28 09:43:00,59.0,48.0,-100.00,South,190,2.0,3.0,69,-99.99,,,0.00,,2013-06-28 15:43:00,
2013-06-28 09:52:00,59.0,48.0,-100.00,South,190,2.0,3.0,69,-99.99,,,0.00,,2013-06-28 15:52:00,
2013-06-28 10:01:00,68.0,50.0,-100.00,NW,325,1.0,3.0,53,-99.99,,,0.00,,2013-06-28 16:01:00,
2013-06-28 10:11:00,62.0,48.0,-100.00,SSW,210,0.0,1.0,59,-99.99,,,0.00,,2013-06-28 16:11:00,
2013-06-28 10:24:00,62.0,48.0,-100.00,SSW,210,0.0,1.0,59,-99.99,,,0.00,,2013-06-28 16:24:00,
2013-06-28 10:33:00,68.0,50.0,-100.00,NW,325,1.0,3.0,53,-99.99,,,0.00,,2013-06-28 16:33:00,
2013-06-28 10:44:00,68.0,50.0,-100.00,NW,325,1.0,3.0,53,-99.99,,,0.00,,2013-06-28 16:44:00,
2013-06-28 10:53:00,68.0,50.0,-100.00,NW,325,1.0,3.0,53,-99.99,,,0.00,,2013-06-28 16:53:00,
2013-06-28 11:01:00,71.0,52.0,-100.00,NW,305,3.0,4.0,51,-99.99,,,0.00,,2013-06-28 17:01:00,
2013-06-28 11:11:00,69.0,52.0,-100.00,NW,305,4.0,6.0,54,-99.99,,,0.00,,2013-06-28 17:11:00,
2013-06-28 11:22:00,69.0,52.0,-100.00,NW,305,4.0,6.0,54,-99.99,,,0.00,,2013-06-28 17:22:00,
2013-06-28 11:31:00,72.0,51.0,-100.00,WNW,300,4.0,5.0,48,-99.99,,,0.00,,2013-06-28 17:31:00,
2013-06-28 11:33:00,71.0,52.0,-100.00,NW,305,3.0,4.0,51,-99.99,,,0.00,,2013-06-28 17:33:00,
2013-06-28 11:44:00,71.0,52.0,-100.00,NW,305,3.0,4.0,51,-99.99,,,0.00,,2013-06-28 17:44:00,
2013-06-28 11:52:00,71.0,52.0,-100.00,NW,305,3.0,4.0,51,-99.99,,,0.00,,2013-06-28 17:52:00,
2013-06-28 12:11:00,72.0,51.0,-100.00,WNW,300,4.0,5.0,48,-99.99,,,0.00,,2013-06-28 18:11:00,
2013-06-28 12:22:00,72.0,51.0,-100.00,WNW,300,4.0,5.0,48,-99.99,,,0.00,,2013-06-28 18:22:00,
2013-06-28 12:43:00,73.0,47.0,-100.00,NW,305,4.0,6.0,40,-99.99,,,0.00,,2013-06-28 18:43:00,
2013-06-28 12:52:00,73.0,47.0,-100.00,NW,305,4.0,6.0,40,-99.99,,,0.00,,2013-06-28 18:52:00,
2013-06-28 13:01:00,73.0,47.0,-100.00,NW,305,4.0,6.0,40,-99.99,,,0.00,,2013-06-28 19:01:00,
2013-06-28 13:22:00,75.0,44.0,-100.00,WNW,300,4.0,7.0,34,-99.99,,,0.00,,2013-06-28 19:22:00,
2013-06-28 13:32:00,75.0,46.0,-100.00,WNW,285,4.0,8.0,36,-99.99,,,0.00,,2013-06-28 19:32:00,
2013-06-28 13:43:00,75.0,46.0,-100.00,WNW,285,4.0,8.0,36,-99.99,,,0.00,,2013-06-28 19:43:00,
2013-06-28 13:53:00,75.0,46.0,-100.00,WNW,285,4.0,8.0,36,-99.99,,,0.00,,2013-06-28 19:53:00,
2013-06-28 14:01:00,76.0,44.0,-100.00,NW,305,4.0,9.0,32,-99.99,,,0.00,,2013-06-28 20:01:00,
2013-06-28 14:11:00,75.0,49.0,-100.00,West,270,5.0,8.0,40,-99.99,,,0.00,,2013-06-28 20:11:00,
2013-06-28 14:22:00,75.0,49.0,-100.00,West,270,5.0,8.0,40,-99.99,,,0.00,,2013-06-28 20:22:00,
2013-06-28 14:33:00,76.0,44.0,-100.00,NW,305,4.0,9.0,32,-99.99,,,0.00,,2013-06-28 20:33:00,
2013-06-28 14:43:00,76.0,44.0,-100.00,NW,305,4.0,9.0,32,-99.99,,,0.00,,2013-06-28 20:43:00,
2013-06-28 14:52:00,76.0,44.0,-100.00,NW,305,4.0,9.0,32,-99.99,,,0.00,,2013-06-28 20:52:00,
2013-06-28 15:11:00,77.0,48.0,-100.00,NW,310,4.0,5.0,36,-99.99,,,0.00,,2013-06-28 21:11:00,
2013-06-28 15:23:00,77.0,48.0,-100.00,NW,310,4.0,5.0,36,-99.99,,,0.00,,2013-06-28 21:23:00,
2013-06-28 15:43:00,77.0,46.0,-100.00,WSW,255,3.0,8.0,33,-99.99,,,0.00,,2013-06-28 21:43:00,
2013-06-28 15:53:00,77.0,46.0,-100.00,WSW,255,3.0,8.0,33,-99.99,,,0.00,,2013-06-28 21:53:00,
2013-06-28 16:01:00,77.0,46.0,-100.00,WSW,255,3.0,8.0,33,-99.99,,,0.00,,2013-06-28 22:01:00,
2013-06-28 16:34:00,79.0,44.0,-100.00,WNW,290,4.0,8.0,29,-99.99,,,0.00,,2013-06-28 22:34:00,
2013-06-28 16:43:00,79.0,44.0,-100.00,WNW,290,4.0,8.0,29,-99.99,,,0.00,,2013-06-28 22:43:00,
2013-06-28 16:52:00,79.0,44.0,-100.00,WNW,290,4.0,8.0,29,-99.99,,,0.00,,2013-06-28 22:52:00,
2013-06-28 17:11:00,79.0,49.0,-100.00,NW,310,9.0,12.0,36,-99.99,,,0.00,,2013-06-28 23:11:00,
2013-06-28 17:23:00,79.0,49.0,-100.00,NW,310,9.0,12.0,36,-99.99,,,0.00,,2013-06-28 23:23:00,
2013-06-28 17:34:00,79.0,48.0,-100.00,WNW,295,6.0,14.0,34,-99.99,,,0.00,,2013-06-28 23:34:00,
2013-06-28 17:43:00,79.0,48.0,-100.00,WNW,295,6.0,14.0,34,-99.99,,,0.00,,2013-06-28 23:43:00,
2013-06-28 17:53:00,79.0,40.0,-100.00,NW,315,8.0,9.0,25,-99.99,,,0.00,,2013-06-28 23:53:00,
2013-06-28 18:01:00,79.0,40.0,-100.00,NW,315,8.0,9.0,25,-99.99,,,0.00,,2013-06-29 00:01:00,
2013-06-28 18:22:00,81.0,44.0,-100.00,West,270,1.0,11.0,28,-99.99,,,0.00,,2013-06-29 00:22:00,
2013-06-28 18:33:00,81.0,44.0,-100.00,West,270,1.0,11.0,28,-99.99,,,0.00,,2013-06-29 00:33:00,
2013-06-28 18:42:00,81.0,44.0,-100.00,West,270,1.0,11.0,28,-99.99,,,0.00,,2013-06-29 00:42:00,
2013-06-28 18:52:00,79.0,45.0,-100.00,NW,315,6.0,9.0,30,-99.99,,,0.00,,2013-06-29 00:52:00,
2013-06-28 19:00:00,79.0,50.0,-100.00,NW,310,6.0,7.0,36,-99.99,,,0.00,,2013-06-29 01:00:00,
2013-06-28 19:01:00,79.0,45.0,-100.00,NW,315,6.0,9.0,30,-99.99,,,0.00,,2013-06-29 01:01:00,
2013-06-28 19:11:00,79.0,45.0,-100.00,NW,315,6.0,9.0,30,-99.99,,,0.00,,2013-06-29 01:11:00,
2013-06-28 19:22:00,79.0,45.0,-100.00,NW,315,6.0,9.0,30,-99.99,,,0.00,,2013-06-29 01:22:00,
2013-06-28 19:31:00,79.0,50.0,-100.00,NW,310,6.0,7.0,36,-99.99,,,0.00,,2013-06-29 01:31:00,
2013-06-28 19:42:00,79.0,50.0,-100.00,NW,310,6.0,7.0,36,-99.99,,,0.00,,2013-06-29 01:42:00,
2013-06-28 19:51:00,79.0,50.0,-100.00,NW,310,6.0,7.0,36,-99.99,,,0.00,,2013-06-29 01:51:00,
2013-06-28 20:10:00,79.0,48.0,-100.00,WNW,295,6.0,8.0,33,-99.99,,,0.00,,2013-06-29 02:10:00,
2013-06-28 20:21:00,79.0,48.0,-100.00,WNW,295,6.0,8.0,33,-99.99,,,0.00,,2013-06-29 02:21:00,
2013-06-28 20:31:00,77.0,52.0,-100.00,NW,315,4.0,8.0,42,-99.99,,,0.00,,2013-06-29 02:31:00,
2013-06-28 20:41:00,77.0,52.0,-100.00,NW,315,4.0,8.0,42,-99.99,,,0.00,,2013-06-29 02:41:00,
2013-06-28 20:51:00,77.0,52.0,-100.00,NW,315,4.0,8.0,42,-99.99,,,0.00,,2013-06-29 02:51:00,
2013-06-28 21:00:00,77.0,52.0,-100.00,NW,315,4.0,8.0,42,-99.99,,,0.00,,2013-06-29 03:00:00,
2013-06-28 21:11:00,75.0,54.0,-100.00,WNW,290,4.0,6.0,49,-99.99,,,0.00,,2013-06-29 03:11:00,
2013-06-28 21:21:00,75.0,54.0,-100.00,WNW,290,4.0,6.0,49,-99.99,,,0.00,,2013-06-29 03:21:00,
2013-06-28 21:51:00,69.0,52.0,-100.00,NE,45,3.0,4.0,55,-99.99,,,0.00,,2013-06-29 03:51:00,
2013-06-28 22:01:00,69.0,52.0,-100.00,NE,45,3.0,4.0,55,-99.99,,,0.00,,2013-06-29 04:01:00,
2013-06-28 22:11:00,68.0,49.0,-100.00,East,90,2.0,4.0,52,-99.99,,,0.00,,2013-06-29 04:11:00,
2013-06-28 22:22:00,68.0,49.0,-100.00,East,90,2.0,4.0,52,-99.99,,,0.00,,2013-06-29 04:22:00,
2013-06-28 22:31:00,66.0,49.0,-100.00,NNE,30,1.0,4.0,54,-99.99,,,0.00,,2013-06-29 04:31:00,
2013-06-28 22:41:00,66.0,49.0,-100.00,NNE,30,1.0,4.0,54,-99.99,,,0.00,,2013-06-29 04:41:00,
2013-06-28 22:51:00,65.0,48.0,-100.00,NNE,25,4.0,4.0,55,-99.99,,,0.00,,2013-06-29 04:51:00,
2013-06-28 23:01:00,65.0,48.0,-100.00,NNE,25,4.0,4.0,55,-99.99,,,0.00,,2013-06-29 05:01:00,
2013-06-28 23:10:00,64.0,49.0,-100.00,East,85,1.0,3.0,58,-99.99,,,0.00,,2013-06-29 05:10:00,
2013-06-28 23:21:00,64.0,49.0,-100.00,East,85,1.0,3.0,58,-99.99,,,0.00,,2013-06-29 05:21:00,
2013-06-28 23:30:00,60.0,49.0,-100.00,SW,220,0.0,1.0,66,-99.99,,,0.00,,2013-06-29 05:30:00,
2013-06-28 23:41:00,60.0,50.0,-100.00,SE,140,1.0,3.0,69,-99.99,,,0.00,,2013-06-29 05:41:00,
2013-06-28 23:51:00,60.0,50.0,-100.00,SE,140,1.0,3.0,69,-99.99,,,0.00,,2013-06-29 05:51:00,